Time;durP1;ratioP1;P1;durP2;ratioP2;P2;SDS_P1;SDS_P2;PMS_P1;PMS_P2;Temp;Humidity;BMP_temperature;BMP_pressure;BME280_temperature;BME280_humidity;BME280_pressure;Samples;Min_cycle;Max_cycle;Signal;HPM_P1;HPM_P2
2023/05/29 00:01:50;;;;;;;;;;;14.50;65.10;;;;;;5059290;28;19919;-81
2023/05/29 00:04:15;;;;;;;;;;;14.50;65.80;;;;;;5064445;28;20003;-81
2023/05/29 00:06:41;;;;;;;;;;;14.40;66.30;;;;;;5043642;28;20008;-80
2023/05/29 00:09:06;;;;;;;;;;;14.30;66.60;;;;;;5067246;28;20369;-83
2023/05/29 00:11:32;;;;;;;;;;;14.50;66.00;;;;;;5060836;28;20418;-81
2023/05/29 00:13:57;;;;;;;;;;;14.40;66.40;;;;;;5071529;28;19952;-78
2023/05/29 00:16:23;;;;;;;;;;;14.40;66.70;;;;;;5068199;28;19940;-79
2023/05/29 00:18:49;;;;;;;;;;;14.20;67.10;;;;;;5060547;28;19940;-79
2023/05/29 00:21:15;;;;;;;;;;;14.30;66.80;;;;;;5040910;28;19924;-83
2023/05/29 00:23:41;;;;;;;;;;;14.20;67.10;;;;;;5028909;28;19909;-81
2023/05/29 00:26:07;;;;;;;;;;;14.20;67.50;;;;;;5057956;28;19923;-80
2023/05/29 00:28:32;;;;;;;;;;;14.10;67.30;;;;;;5042945;28;19966;-80
2023/05/29 00:30:57;;;;;;;;;;;14.10;67.70;;;;;;5060195;28;19916;-81
2023/05/29 00:33:23;;;;;;;;;;;14.10;67.90;;;;;;5070793;28;19931;-81
2023/05/29 00:35:49;;;;;;;;;;;14.20;67.70;;;;;;5057105;28;19919;-81
2023/05/29 00:38:14;;;;;;;;;;;14.10;68.30;;;;;;5052602;28;19962;-80
2023/05/29 00:40:40;;;;;;;;;;;14.00;68.90;;;;;;5054789;28;19952;-80
2023/05/29 00:43:05;;;;;;;;;;;14.00;69.10;;;;;;5055568;28;20315;-80
2023/05/29 00:45:31;;;;;;;;;;;14.00;69.40;;;;;;5031170;28;19991;-80
2023/05/29 00:47:57;;;;;;;;;;;13.90;69.50;;;;;;5055364;28;20432;-80
2023/05/29 00:50:23;;;;;;;;;;;13.80;69.90;;;;;;5039420;28;19912;-80
2023/05/29 00:52:49;;;;;;;;;;;13.70;70.30;;;;;;5054783;28;19913;-81
2023/05/29 00:55:15;;;;;;;;;;;13.60;70.60;;;;;;5034859;28;19974;-80
2023/05/29 00:57:41;;;;;;;;;;;13.60;70.90;;;;;;5057401;28;19917;-78
2023/05/29 01:00:13;;;;;;;;;;;13.60;71.10;;;;;;5057404;28;19931;-79
2023/05/29 01:02:39;;;;;;;;;;;13.50;71.20;;;;;;5032887;28;19913;-79
2023/05/29 01:05:05;;;;;;;;;;;13.50;71.10;;;;;;5039115;28;20458;-79
2023/05/29 01:07:31;;;;;;;;;;;13.30;71.50;;;;;;5034453;28;19913;-80
2023/05/29 01:09:56;;;;;;;;;;;13.30;71.60;;;;;;5036508;28;19916;-79
2023/05/29 01:12:29;;;;;;;;;;;13.20;72.10;;;;;;5034635;28;19912;-79
2023/05/29 01:15:10;;;;;;;;;;;13.30;71.50;;;;;;5068993;28;19920;-81
2023/05/29 01:17:41;;;;;;;;;;;13.00;72.20;;;;;;5031497;28;19917;-80
2023/05/29 01:20:19;;;;;;;;;;;12.90;72.70;;;;;;5058827;28;20366;-80
2023/05/29 01:23:03;;;;;;;;;;;12.90;72.20;;;;;;5039230;28;19916;-80
2023/05/29 01:25:47;;;;;;;;;;;12.90;72.70;;;;;;5054911;28;20356;-81
2023/05/29 01:28:12;;;;;;;;;;;13.00;71.60;;;;;;5036227;28;19913;-80
2023/05/29 01:30:40;;;;;;;;;;;12.90;71.70;;;;;;5036258;28;19966;-80
2023/05/29 01:33:05;;;;;;;;;;;12.80;71.60;;;;;;5036128;28;19913;-81
2023/05/29 01:35:31;;;;;;;;;;;12.60;72.10;;;;;;5048171;28;19920;-80
2023/05/29 01:37:56;;;;;;;;;;;12.60;72.00;;;;;;5044812;28;19909;-80
2023/05/29 01:40:21;;;;;;;;;;;12.60;71.50;;;;;;5061169;28;19984;-79
2023/05/29 01:42:47;;;;;;;;;;;12.50;71.50;;;;;;5046718;28;19929;-80
2023/05/29 01:45:13;;;;;;;;;;;12.50;71.90;;;;;;5037034;28;19913;-81
2023/05/29 01:47:38;;;;;;;;;;;12.50;72.20;;;;;;5057900;28;19917;-81
2023/05/29 01:50:04;;;;;;;;;;;12.50;72.40;;;;;;5040651;28;20016;-80
2023/05/29 01:52:31;;;;;;;;;;;12.60;71.50;;;;;;5072169;28;19959;-81
2023/05/29 01:54:57;;;;;;;;;;;12.50;71.80;;;;;;5067183;28;19917;-81
2023/05/29 01:57:23;;;;;;;;;;;12.40;72.40;;;;;;5040963;28;20079;-79
2023/05/29 01:59:49;;;;;;;;;;;12.40;72.70;;;;;;5061631;28;19936;-81
2023/05/29 02:02:14;;;;;;;;;;;12.40;72.60;;;;;;5058383;28;20468;-80
2023/05/29 02:04:40;;;;;;;;;;;12.30;72.60;;;;;;5060602;28;19939;-81
2023/05/29 02:07:06;;;;;;;;;;;12.30;72.90;;;;;;5038191;28;20314;-80
2023/05/29 02:09:32;;;;;;;;;;;12.30;72.50;;;;;;5039571;28;19921;-81
2023/05/29 02:11:58;;;;;;;;;;;12.30;73.00;;;;;;5040515;28;19935;-81
2023/05/29 02:14:24;;;;;;;;;;;12.30;72.60;;;;;;5039285;28;19923;-80
2023/05/29 02:16:51;;;;;;;;;;;12.30;72.50;;;;;;5053018;28;19916;-80
2023/05/29 02:19:18;;;;;;;;;;;12.20;73.10;;;;;;5032985;28;20333;-81
2023/05/29 02:21:44;;;;;;;;;;;12.10;73.70;;;;;;5038932;28;20378;-81
2023/05/29 02:24:09;;;;;;;;;;;12.10;73.40;;;;;;5033479;28;19912;-80
2023/05/29 02:26:36;;;;;;;;;;;12.10;73.50;;;;;;5054159;28;19933;-80
2023/05/29 02:29:02;;;;;;;;;;;12.10;73.30;;;;;;5067594;28;19920;-81
2023/05/29 02:31:28;;;;;;;;;;;12.00;73.80;;;;;;5040483;28;19913;-79
2023/05/29 02:33:53;;;;;;;;;;;12.10;73.60;;;;;;5041862;28;19912;-80
2023/05/29 02:36:19;;;;;;;;;;;12.10;73.30;;;;;;5053943;28;19920;-80
2023/05/29 02:38:44;;;;;;;;;;;12.00;74.00;;;;;;5041220;28;19964;-80
2023/05/29 02:41:10;;;;;;;;;;;12.10;74.20;;;;;;5046086;28;20003;-80
2023/05/29 02:43:35;;;;;;;;;;;12.10;74.40;;;;;;5052309;28;20003;-80
2023/05/29 02:46:00;;;;;;;;;;;12.00;74.30;;;;;;5065960;28;19992;-80
2023/05/29 02:48:26;;;;;;;;;;;12.00;74.30;;;;;;5034177;28;19917;-80
2023/05/29 02:50:52;;;;;;;;;;;11.80;74.60;;;;;;5051583;28;19983;-81
2023/05/29 02:53:17;;;;;;;;;;;11.80;75.00;;;;;;5051323;28;20370;-81
2023/05/29 02:55:43;;;;;;;;;;;11.70;75.30;;;;;;5034464;28;19959;-79
2023/05/29 02:58:08;;;;;;;;;;;11.80;75.90;;;;;;5063834;28;19924;-80
2023/05/29 03:00:34;;;;;;;;;;;11.90;75.70;;;;;;5053887;28;19978;-80
2023/05/29 03:03:00;;;;;;;;;;;12.00;74.90;;;;;;5050346;28;19912;-80
2023/05/29 03:05:25;;;;;;;;;;;12.00;74.50;;;;;;5059109;28;19956;-79
2023/05/29 03:07:51;;;;;;;;;;;11.90;75.20;;;;;;5038124;28;19920;-78
2023/05/29 03:10:17;;;;;;;;;;;12.00;74.80;;;;;;5037609;28;20440;-81
2023/05/29 03:12:43;;;;;;;;;;;11.90;74.60;;;;;;5058234;28;19921;-81
2023/05/29 03:15:09;;;;;;;;;;;11.60;75.10;;;;;;5048602;28;20285;-79
2023/05/29 03:17:37;;;;;;;;;;;11.60;75.80;;;;;;5058259;28;19917;-80
2023/05/29 03:20:05;;;;;;;;;;;11.60;75.80;;;;;;5060140;28;19913;-81
2023/05/29 03:22:31;;;;;;;;;;;11.60;75.60;;;;;;5062294;28;20187;-81
2023/05/29 03:24:57;;;;;;;;;;;11.60;75.50;;;;;;5053726;28;20439;-80
2023/05/29 03:27:22;;;;;;;;;;;11.60;75.50;;;;;;5059013;28;19913;-81
2023/05/29 03:29:47;;;;;;;;;;;11.60;76.00;;;;;;5061936;28;19913;-81
2023/05/29 03:32:13;;;;;;;;;;;11.60;76.10;;;;;;5063310;28;19912;-81
2023/05/29 03:34:39;;;;;;;;;;;11.60;76.10;;;;;;5046502;28;20380;-81
2023/05/29 03:37:05;;;;;;;;;;;11.60;76.10;;;;;;5072244;28;20365;-81
2023/05/29 03:39:30;;;;;;;;;;;11.60;76.10;;;;;;5058454;28;19987;-81
2023/05/29 03:41:56;;;;;;;;;;;11.60;75.90;;;;;;5038083;28;20105;-80
2023/05/29 03:44:21;;;;;;;;;;;11.60;75.90;;;;;;5056905;28;19966;-80
2023/05/29 03:46:47;;;;;;;;;;;11.60;76.20;;;;;;5042904;28;19944;-81
2023/05/29 03:49:12;;;;;;;;;;;11.50;76.20;;;;;;5044794;28;19913;-80
2023/05/29 03:51:38;;;;;;;;;;;11.50;76.70;;;;;;5062045;28;20397;-81
2023/05/29 03:54:03;;;;;;;;;;;11.50;76.70;;;;;;5055888;28;20031;-81
2023/05/29 03:56:28;;;;;;;;;;;11.60;75.70;;;;;;5038939;28;19971;-81
2023/05/29 03:58:54;;;;;;;;;;;11.60;76.20;;;;;;5047019;28;19917;-81
2023/05/29 04:01:20;;;;;;;;;;;11.70;75.60;;;;;;5051074;28;19921;-80
2023/05/29 04:03:46;;;;;;;;;;;11.60;76.10;;;;;;5056753;28;19983;-81
2023/05/29 04:06:11;;;;;;;;;;;11.60;76.00;;;;;;5058435;28;19913;-81
2023/05/29 04:08:37;;;;;;;;;;;11.60;76.00;;;;;;5042304;28;19912;-81
2023/05/29 04:11:03;;;;;;;;;;;11.60;76.50;;;;;;5048748;28;19912;-81
2023/05/29 04:13:29;;;;;;;;;;;11.50;76.40;;;;;;5051349;28;20298;-81
2023/05/29 04:15:54;;;;;;;;;;;11.50;77.00;;;;;;5055211;28;19917;-80
2023/05/29 04:18:20;;;;;;;;;;;11.50;76.90;;;;;;5040658;28;20441;-79
2023/05/29 04:20:47;;;;;;;;;;;11.60;77.00;;;;;;5044885;28;19959;-80
2023/05/29 04:23:12;;;;;;;;;;;11.60;76.50;;;;;;5044354;28;19913;-80
2023/05/29 04:25:38;;;;;;;;;;;11.60;76.20;;;;;;5059952;28;19913;-81
2023/05/29 04:28:03;;;;;;;;;;;11.60;77.00;;;;;;5035237;28;19924;-80
2023/05/29 04:30:29;;;;;;;;;;;11.70;76.10;;;;;;5056906;28;20418;-82
2023/05/29 04:32:55;;;;;;;;;;;11.60;76.70;;;;;;5069884;28;19913;-81
2023/05/29 04:35:21;;;;;;;;;;;11.60;77.10;;;;;;5057824;28;19913;-82
2023/05/29 04:37:47;;;;;;;;;;;11.80;75.90;;;;;;5061865;28;19920;-82
2023/05/29 04:40:17;;;;;;;;;;;11.90;75.00;;;;;;5039115;28;20275;-81
2023/05/29 04:42:44;;;;;;;;;;;11.80;75.70;;;;;;5051449;28;20043;-80
2023/05/29 04:45:10;;;;;;;;;;;11.70;76.10;;;;;;5067115;28;20374;-80
2023/05/29 04:47:42;;;;;;;;;;;11.80;76.40;;;;;;5037028;28;19944;-82
2023/05/29 04:50:10;;;;;;;;;;;11.80;75.80;;;;;;5041303;28;19944;-83
2023/05/29 04:52:37;;;;;;;;;;;11.90;75.80;;;;;;5059132;28;19913;-83
2023/05/29 04:55:02;;;;;;;;;;;12.00;75.10;;;;;;5057756;28;19943;-82
2023/05/29 04:57:28;;;;;;;;;;;11.90;75.30;;;;;;5090487;22;19932;-80
2023/05/29 04:59:53;;;;;;;;;;;12.00;75.20;;;;;;5059541;28;19917;-80
2023/05/29 05:02:19;;;;;;;;;;;12.10;75.20;;;;;;5073234;28;19966;-80
2023/05/29 05:04:45;;;;;;;;;;;12.10;75.60;;;;;;5070240;28;19917;-80
2023/05/29 05:07:10;;;;;;;;;;;12.10;75.00;;;;;;5069608;28;20064;-80
2023/05/29 05:09:36;;;;;;;;;;;12.10;74.80;;;;;;5066405;28;19920;-80
2023/05/29 05:12:02;;;;;;;;;;;12.10;74.20;;;;;;5059743;28;20370;-80
2023/05/29 05:14:27;;;;;;;;;;;12.10;74.20;;;;;;5061139;28;19913;-80
2023/05/29 05:16:53;;;;;;;;;;;12.10;74.70;;;;;;5064629;28;19924;-81
2023/05/29 05:19:19;;;;;;;;;;;12.10;74.70;;;;;;5066272;28;19974;-80
2023/05/29 05:21:45;;;;;;;;;;;12.20;74.50;;;;;;5057988;28;20004;-81
2023/05/29 05:24:10;;;;;;;;;;;12.20;74.70;;;;;;5071719;28;20358;-80
2023/05/29 05:26:35;;;;;;;;;;;12.40;74.30;;;;;;5070923;28;20386;-80
2023/05/29 05:29:01;;;;;;;;;;;12.50;73.50;;;;;;5065187;28;19920;-81
2023/05/29 05:31:26;;;;;;;;;;;12.50;73.10;;;;;;5065363;28;20389;-81
2023/05/29 05:33:52;;;;;;;;;;;12.50;73.00;;;;;;5064286;28;19938;-81
2023/05/29 05:36:18;;;;;;;;;;;12.60;72.40;;;;;;5066224;28;19920;-81
2023/05/29 05:38:43;;;;;;;;;;;12.70;72.00;;;;;;5063783;28;19913;-81
2023/05/29 05:41:09;;;;;;;;;;;12.60;72.70;;;;;;5061499;28;19912;-81
2023/05/29 05:43:35;;;;;;;;;;;12.80;73.00;;;;;;5067665;28;19912;-81
2023/05/29 05:46:00;;;;;;;;;;;13.00;71.30;;;;;;5066716;28;19936;-81
2023/05/29 05:48:26;;;;;;;;;;;13.00;70.80;;;;;;5065415;28;20003;-81
2023/05/29 05:50:51;;;;;;;;;;;13.10;70.00;;;;;;5066957;28;19964;-81
2023/05/29 05:53:17;;;;;;;;;;;13.00;70.90;;;;;;5063514;28;20305;-81
2023/05/29 05:55:42;;;;;;;;;;;13.10;70.70;;;;;;5060915;28;20432;-81
2023/05/29 05:58:08;;;;;;;;;;;13.00;70.80;;;;;;5056144;28;19935;-81
2023/05/29 06:00:33;;;;;;;;;;;13.00;71.40;;;;;;5066100;28;19920;-81
2023/05/29 06:03:00;;;;;;;;;;;13.00;71.70;;;;;;5063254;28;19995;-81
2023/05/29 06:05:25;;;;;;;;;;;13.00;71.20;;;;;;5070153;28;19997;-81
2023/05/29 06:07:51;;;;;;;;;;;13.10;71.20;;;;;;5072036;28;19924;-81
2023/05/29 06:10:16;;;;;;;;;;;13.00;71.80;;;;;;5067874;28;19917;-82
2023/05/29 06:12:42;;;;;;;;;;;13.10;71.30;;;;;;5064621;28;19912;-81
2023/05/29 06:15:07;;;;;;;;;;;13.00;71.90;;;;;;5064868;28;19956;-81
2023/05/29 06:17:33;;;;;;;;;;;13.00;71.10;;;;;;5067961;28;19916;-81
2023/05/29 06:19:58;;;;;;;;;;;13.10;71.30;;;;;;5058302;28;20365;-82
2023/05/29 06:22:24;;;;;;;;;;;13.00;71.90;;;;;;5061362;28;20345;-81
2023/05/29 06:24:49;;;;;;;;;;;13.10;71.80;;;;;;5064774;28;19923;-81
2023/05/29 06:27:15;;;;;;;;;;;13.20;70.40;;;;;;5069454;28;19963;-81
2023/05/29 06:29:40;;;;;;;;;;;13.20;70.40;;;;;;5073540;28;19912;-82
2023/05/29 06:32:06;;;;;;;;;;;13.10;70.60;;;;;;5064010;28;20358;-80
2023/05/29 06:34:31;;;;;;;;;;;13.10;70.60;;;;;;5070096;28;19923;-81
2023/05/29 06:36:56;;;;;;;;;;;13.20;71.20;;;;;;5085235;28;19958;-81
2023/05/29 06:39:22;;;;;;;;;;;13.30;71.40;;;;;;5065166;28;19919;-81
2023/05/29 06:41:47;;;;;;;;;;;13.30;70.70;;;;;;5068615;28;19995;-81
2023/05/29 06:44:13;;;;;;;;;;;13.40;70.70;;;;;;5070495;28;20374;-81
2023/05/29 06:46:38;;;;;;;;;;;13.50;70.20;;;;;;5071862;28;20024;-80
2023/05/29 06:49:04;;;;;;;;;;;13.50;70.80;;;;;;5070834;28;19935;-81
2023/05/29 06:51:29;;;;;;;;;;;13.60;70.40;;;;;;5062613;28;19936;-81
2023/05/29 06:53:55;;;;;;;;;;;13.70;69.40;;;;;;5069844;28;19916;-82
2023/05/29 06:56:21;;;;;;;;;;;13.60;69.90;;;;;;5067598;28;19948;-83
2023/05/29 06:58:47;;;;;;;;;;;13.60;70.20;;;;;;5087313;28;20302;-82
2023/05/29 07:01:12;;;;;;;;;;;13.50;70.50;;;;;;5099770;28;19919;-84
2023/05/29 07:03:38;;;;;;;;;;;13.40;70.40;;;;;;5078030;28;19913;-84
2023/05/29 07:06:04;;;;;;;;;;;13.40;70.70;;;;;;5074091;28;19912;-85
2023/05/29 07:08:29;;;;;;;;;;;13.30;72.10;;;;;;5072881;28;19912;-84
2023/05/29 07:10:55;;;;;;;;;;;13.30;71.00;;;;;;5073485;28;19935;-84
2023/05/29 07:13:20;;;;;;;;;;;13.30;71.50;;;;;;5075728;28;19923;-84
2023/05/29 07:15:46;;;;;;;;;;;13.50;71.60;;;;;;5073020;28;19913;-83
2023/05/29 07:18:11;;;;;;;;;;;13.60;69.50;;;;;;5065298;28;19920;-85
2023/05/29 07:20:37;;;;;;;;;;;13.70;70.70;;;;;;5061314;28;20003;-83
2023/05/29 07:23:03;;;;;;;;;;;13.70;70.10;;;;;;5073275;28;19912;-82
2023/05/29 07:25:29;;;;;;;;;;;13.60;70.20;;;;;;5066340;28;19954;-81
2023/05/29 07:27:54;;;;;;;;;;;13.70;70.10;;;;;;5067974;28;19912;-82
2023/05/29 07:30:20;;;;;;;;;;;13.70;70.70;;;;;;5073992;28;19970;-84
2023/05/29 07:32:45;;;;;;;;;;;13.80;70.50;;;;;;5066260;28;19921;-82
2023/05/29 07:35:11;;;;;;;;;;;13.90;71.00;;;;;;5062525;28;19917;-80
2023/05/29 07:37:36;;;;;;;;;;;14.00;70.20;;;;;;5071059;28;19931;-82
2023/05/29 07:40:04;;;;;;;;;;;14.10;69.60;;;;;;5072669;28;20019;-83
2023/05/29 07:42:31;;;;;;;;;;;14.30;68.90;;;;;;5063608;28;19928;-82
2023/05/29 07:44:57;;;;;;;;;;;14.40;67.70;;;;;;5062821;28;19912;-82
2023/05/29 07:47:22;;;;;;;;;;;14.30;68.30;;;;;;5061005;28;19912;-81
2023/05/29 07:49:47;;;;;;;;;;;14.30;68.30;;;;;;5071475;28;19944;-82
2023/05/29 07:52:13;;;;;;;;;;;14.30;68.70;;;;;;5061571;28;20287;-82
2023/05/29 07:54:38;;;;;;;;;;;14.30;69.60;;;;;;5072687;28;19913;-81
2023/05/29 07:57:09;;;;;;;;;;;14.40;67.80;;;;;;5068305;28;20409;-83
2023/05/29 07:59:35;;;;;;;;;;;14.60;68.00;;;;;;5057637;28;19952;-82
2023/05/29 08:02:02;;;;;;;;;;;14.60;67.50;;;;;;5069375;28;19927;-82
2023/05/29 08:04:28;;;;;;;;;;;14.70;67.40;;;;;;5068972;28;20259;-82
2023/05/29 08:06:53;;;;;;;;;;;14.80;67.60;;;;;;5072662;28;19924;-83
2023/05/29 08:09:19;;;;;;;;;;;14.60;68.20;;;;;;5060694;28;20003;-80
2023/05/29 08:11:46;;;;;;;;;;;14.80;69.10;;;;;;5059942;28;19979;-82
2023/05/29 08:14:12;;;;;;;;;;;14.80;68.70;;;;;;5067882;28;19947;-80
2023/05/29 08:16:37;;;;;;;;;;;14.90;68.80;;;;;;5058999;28;19939;-81
2023/05/29 08:19:03;;;;;;;;;;;15.00;68.50;;;;;;5068576;28;19916;-82
2023/05/29 08:21:29;;;;;;;;;;;15.00;66.60;;;;;;5066018;28;20399;-81
2023/05/29 08:23:55;;;;;;;;;;;15.00;66.40;;;;;;5071612;28;19913;-82
2023/05/29 08:26:20;;;;;;;;;;;15.10;66.40;;;;;;5058337;28;19920;-83
2023/05/29 08:28:46;;;;;;;;;;;15.10;66.70;;;;;;5065305;28;19958;-81
2023/05/29 08:31:11;;;;;;;;;;;15.20;66.50;;;;;;5067625;28;19916;-83
2023/05/29 08:33:37;;;;;;;;;;;15.20;66.70;;;;;;5080553;28;19913;-81
2023/05/29 08:36:03;;;;;;;;;;;15.20;66.80;;;;;;5075211;28;19934;-82
2023/05/29 08:38:29;;;;;;;;;;;15.30;65.90;;;;;;5066439;28;19939;-82
2023/05/29 08:40:56;;;;;;;;;;;15.30;66.30;;;;;;5067632;28;19928;-82
2023/05/29 08:43:22;;;;;;;;;;;15.50;67.70;;;;;;5064342;28;19963;-83
2023/05/29 08:45:52;;;;;;;;;;;15.60;66.50;;;;;;5074264;28;19920;-83
2023/05/29 08:48:18;;;;;;;;;;;15.70;63.90;;;;;;5070951;28;20022;-83
2023/05/29 08:50:48;;;;;;;;;;;15.70;64.00;;;;;;5068977;28;19920;-84
2023/05/29 08:53:15;;;;;;;;;;;15.80;63.40;;;;;;5069102;28;19913;-82
2023/05/29 08:55:40;;;;;;;;;;;15.80;63.20;;;;;;5061215;28;19912;-82
2023/05/29 08:58:06;;;;;;;;;;;15.60;65.20;;;;;;5069671;28;19946;-82
2023/05/29 09:00:32;;;;;;;;;;;15.70;65.70;;;;;;5089871;28;19916;-82
2023/05/29 09:02:59;;;;;;;;;;;15.90;65.40;;;;;;5055714;28;19995;-83
2023/05/29 09:05:27;;;;;;;;;;;16.00;64.20;;;;;;5063351;28;20388;-82
2023/05/29 09:07:53;;;;;;;;;;;15.90;64.00;;;;;;5063543;28;19952;-82
2023/05/29 09:10:19;;;;;;;;;;;16.00;63.80;;;;;;5074351;28;19909;-83
2023/05/29 09:12:44;;;;;;;;;;;16.00;62.60;;;;;;5069668;28;19932;-83
2023/05/29 09:15:18;;;;;;;;;;;16.10;64.30;;;;;;5067872;28;19980;-83
2023/05/29 09:17:44;;;;;;;;;;;16.20;63.50;;;;;;5071425;28;20003;-82
2023/05/29 09:20:17;;;;;;;;;;;16.30;63.30;;;;;;5073131;28;19959;-83
2023/05/29 09:22:51;;;;;;;;;;;16.20;64.00;;;;;;5058751;28;19927;-85
2023/05/29 09:25:21;;;;;;;;;;;16.40;61.90;;;;;;5062038;28;19912;-86
2023/05/29 09:27:46;;;;;;;;;;;16.30;61.50;;;;;;5062021;28;19912;-85
2023/05/29 09:30:30;;;;;;;;;;;16.30;62.20;;;;;;5064133;28;19909;-84
2023/05/29 09:32:55;;;;;;;;;;;16.20;62.90;;;;;;5084767;28;19917;-85
2023/05/29 09:35:21;;;;;;;;;;;16.40;61.90;;;;;;5067626;28;19919;-85
2023/05/29 09:37:46;;;;;;;;;;;16.30;61.00;;;;;;5072686;28;19916;-84
2023/05/29 09:40:14;;;;;;;;;;;16.10;61.80;;;;;;5067769;28;19954;-83
2023/05/29 09:42:40;;;;;;;;;;;16.10;61.70;;;;;;5064709;28;20268;-84
2023/05/29 09:45:06;;;;;;;;;;;16.20;63.90;;;;;;5065697;28;19976;-84
2023/05/29 09:47:35;;;;;;;;;;;16.10;62.80;;;;;;5067579;28;19956;-85
2023/05/29 09:50:01;;;;;;;;;;;16.30;62.90;;;;;;5063401;28;20281;-83
2023/05/29 09:52:30;;;;;;;;;;;16.20;62.80;;;;;;5062467;28;19909;-83
2023/05/29 09:54:56;;;;;;;;;;;16.40;61.50;;;;;;5091359;28;19917;-81
2023/05/29 09:57:23;;;;;;;;;;;16.40;63.30;;;;;;5092104;28;19925;-82
2023/05/29 09:59:51;;;;;;;;;;;16.50;62.10;;;;;;5067415;28;19920;-82
2023/05/29 10:02:18;;;;;;;;;;;16.50;61.00;;;;;;5073987;28;19912;-81
2023/05/29 10:04:44;;;;;;;;;;;16.60;63.20;;;;;;5068566;28;19929;-85
2023/05/29 10:07:24;;;;;;;;;;;16.80;60.60;;;;;;5064221;28;20393;-83
2023/05/29 10:09:53;;;;;;;;;;;16.80;60.40;;;;;;5070230;28;19962;-82
2023/05/29 10:12:20;;;;;;;;;;;17.00;60.90;;;;;;5071084;28;19995;-84
2023/05/29 10:14:49;;;;;;;;;;;17.00;61.60;;;;;;5069748;28;19959;-84
2023/05/29 10:17:16;;;;;;;;;;;16.80;60.50;;;;;;5064949;28;19955;-86
2023/05/29 10:19:42;;;;;;;;;;;16.90;60.00;;;;;;5086967;28;20020;-83
2023/05/29 10:22:08;;;;;;;;;;;16.80;60.40;;;;;;5076573;28;20007;-83
2023/05/29 10:24:36;;;;;;;;;;;17.10;59.80;;;;;;5075007;28;19939;-85
2023/05/29 10:27:03;;;;;;;;;;;17.10;60.00;;;;;;5067174;28;19912;-83
2023/05/29 10:29:35;;;;;;;;;;;17.10;59.90;;;;;;5071071;28;19913;-85
2023/05/29 10:32:21;;;;;;;;;;;17.10;59.50;;;;;;5086468;28;21837;-85
2023/05/29 10:34:47;;;;;;;;;;;17.30;59.10;;;;;;5062002;28;19912;-82
2023/05/29 10:37:12;;;;;;;;;;;17.30;59.70;;;;;;5074808;28;19919;-82
2023/05/29 10:39:38;;;;;;;;;;;17.30;60.20;;;;;;5065777;28;19940;-83
2023/05/29 10:42:23;;;;;;;;;;;17.30;58.20;;;;;;5070892;28;20003;-82
2023/05/29 10:44:48;;;;;;;;;;;17.30;61.30;;;;;;5068593;28;19913;-84
2023/05/29 10:47:22;;;;;;;;;;;17.30;60.70;;;;;;5068530;28;19934;-84
2023/05/29 10:49:51;;;;;;;;;;;17.40;59.00;;;;;;5066218;28;19912;-83
2023/05/29 10:52:18;;;;;;;;;;;17.60;61.60;;;;;;5064876;28;19954;-83
2023/05/29 10:54:51;;;;;;;;;;;17.60;61.40;;;;;;5071825;28;19920;-83
2023/05/29 10:57:17;;;;;;;;;;;17.60;60.20;;;;;;5071116;28;19960;-83
2023/05/29 10:59:44;;;;;;;;;;;17.70;60.20;;;;;;5067466;28;19927;-83
2023/05/29 11:02:10;;;;;;;;;;;17.70;58.80;;;;;;5065656;28;19920;-84
2023/05/29 11:04:36;;;;;;;;;;;17.70;58.00;;;;;;5068331;28;19912;-81
2023/05/29 11:07:06;;;;;;;;;;;17.70;57.10;;;;;;5076059;28;19988;-84
2023/05/29 11:09:36;;;;;;;;;;;17.80;59.70;;;;;;5066205;28;19913;-84
2023/05/29 11:12:35;;;;;;;;;;;18.00;57.90;;;;;;5070110;28;20461;-82
2023/05/29 11:15:04;;;;;;;;;;;18.00;57.70;;;;;;5071807;28;20484;-82
2023/05/29 11:17:31;;;;;;;;;;;17.90;57.60;;;;;;5076531;28;19948;-83
2023/05/29 11:19:57;;;;;;;;;;;17.90;57.40;;;;;;5072194;28;20003;-83
2023/05/29 11:22:26;;;;;;;;;;;17.80;57.30;;;;;;5075032;28;19948;-84
2023/05/29 11:24:52;;;;;;;;;;;17.80;60.10;;;;;;5068038;28;19986;-81
2023/05/29 11:27:18;;;;;;;;;;;18.10;60.30;;;;;;5070758;28;19962;-82
2023/05/29 11:29:45;;;;;;;;;;;18.20;57.70;;;;;;5069571;28;19912;-81
2023/05/29 11:32:13;;;;;;;;;;;18.30;56.10;;;;;;5067973;28;20300;-81
2023/05/29 11:34:40;;;;;;;;;;;18.30;57.30;;;;;;5085208;28;19916;-83
2023/05/29 11:37:06;;;;;;;;;;;18.30;55.70;;;;;;5061803;28;19913;-82
2023/05/29 11:39:35;;;;;;;;;;;18.30;58.20;;;;;;5067395;28;19923;-83
2023/05/29 11:42:00;;;;;;;;;;;18.30;57.40;;;;;;5066277;28;20297;-85
2023/05/29 11:44:26;;;;;;;;;;;18.30;56.70;;;;;;5070678;28;19920;-82
2023/05/29 11:47:04;;;;;;;;;;;18.20;58.40;;;;;;5065871;28;19960;-85
2023/05/29 11:49:30;;;;;;;;;;;18.40;57.60;;;;;;5070941;28;19920;-84
2023/05/29 11:52:05;;;;;;;;;;;18.50;56.20;;;;;;5070253;28;19959;-84
2023/05/29 11:54:30;;;;;;;;;;;18.50;56.60;;;;;;5054369;28;19913;-83
2023/05/29 11:56:56;;;;;;;;;;;18.60;54.80;;;;;;5067937;28;20031;-85
2023/05/29 11:59:21;;;;;;;;;;;18.40;57.60;;;;;;5067260;28;19959;-84
2023/05/29 12:01:48;;;;;;;;;;;18.30;60.40;;;;;;5067678;28;20444;-83
2023/05/29 12:04:14;;;;;;;;;;;18.30;59.30;;;;;;5061408;28;19978;-83
2023/05/29 12:06:42;;;;;;;;;;;18.30;57.90;;;;;;5062864;28;20051;-83
2023/05/29 12:09:07;;;;;;;;;;;18.30;58.60;;;;;;5068651;28;19913;-83
2023/05/29 12:11:34;;;;;;;;;;;18.40;58.70;;;;;;5061596;28;19912;-82
2023/05/29 12:14:00;;;;;;;;;;;18.50;60.20;;;;;;5066223;28;19916;-83
2023/05/29 12:16:27;;;;;;;;;;;18.40;57.90;;;;;;5065682;28;19966;-83
2023/05/29 12:18:53;;;;;;;;;;;18.50;58.30;;;;;;5059059;28;20343;-83
2023/05/29 12:21:20;;;;;;;;;;;18.60;57.50;;;;;;5071606;28;19936;-84
2023/05/29 12:23:45;;;;;;;;;;;18.60;58.60;;;;;;5073336;28;19917;-83
2023/05/29 12:26:12;;;;;;;;;;;18.50;59.40;;;;;;5070115;28;19919;-84
2023/05/29 12:28:42;;;;;;;;;;;18.60;57.30;;;;;;5058724;28;19908;-82
2023/05/29 12:31:07;;;;;;;;;;;18.50;58.40;;;;;;5080263;28;20298;-83
2023/05/29 12:33:33;;;;;;;;;;;18.60;56.60;;;;;;5068531;28;19909;-84
2023/05/29 12:36:06;;;;;;;;;;;18.70;56.60;;;;;;5068542;28;19916;-83
2023/05/29 12:38:50;;;;;;;;;;;18.80;56.90;;;;;;5064769;28;19974;-83
2023/05/29 12:41:29;;;;;;;;;;;18.80;55.80;;;;;;5080536;28;19982;-84
2023/05/29 12:43:57;;;;;;;;;;;18.80;56.70;;;;;;5067169;28;19935;-84
2023/05/29 12:46:26;;;;;;;;;;;19.00;55.50;;;;;;5068201;28;19908;-85
2023/05/29 12:48:52;;;;;;;;;;;18.90;55.20;;;;;;5054376;28;19948;-84
2023/05/29 12:51:22;;;;;;;;;;;19.00;55.90;;;;;;5067580;28;19980;-84
2023/05/29 12:53:47;;;;;;;;;;;18.90;54.60;;;;;;5059963;28;19908;-84
2023/05/29 12:56:13;;;;;;;;;;;19.00;54.30;;;;;;5065052;28;19913;-85
2023/05/29 12:58:38;;;;;;;;;;;19.10;53.90;;;;;;5066020;28;19917;-83
2023/05/29 13:01:04;;;;;;;;;;;19.10;54.30;;;;;;5065495;28;19976;-85
2023/05/29 13:03:29;;;;;;;;;;;19.20;53.50;;;;;;5066824;28;19912;-85
2023/05/29 13:05:55;;;;;;;;;;;19.10;54.20;;;;;;5065156;28;19932;-82
2023/05/29 13:08:20;;;;;;;;;;;19.30;53.10;;;;;;5063853;28;19912;-85
2023/05/29 13:10:46;;;;;;;;;;;19.20;53.30;;;;;;5070230;28;19961;-85
2023/05/29 13:13:12;;;;;;;;;;;19.10;54.50;;;;;;5061778;28;19916;-84
2023/05/29 13:15:40;;;;;;;;;;;19.10;53.30;;;;;;5059085;28;19923;-85
2023/05/29 13:18:05;;;;;;;;;;;19.30;53.20;;;;;;5063300;28;19983;-84
2023/05/29 13:20:31;;;;;;;;;;;19.10;54.20;;;;;;5065354;28;19912;-84
2023/05/29 13:22:57;;;;;;;;;;;19.10;53.80;;;;;;5069116;28;19970;-85
2023/05/29 13:25:23;;;;;;;;;;;19.10;53.70;;;;;;5065836;28;20506;-85
2023/05/29 13:27:49;;;;;;;;;;;19.00;56.20;;;;;;5057290;28;19913;-85
2023/05/29 13:30:15;;;;;;;;;;;18.90;55.20;;;;;;5063136;28;20656;-86
2023/05/29 13:32:41;;;;;;;;;;;18.90;56.60;;;;;;5066382;28;19913;-84
2023/05/29 13:35:07;;;;;;;;;;;18.90;56.00;;;;;;5063243;28;19919;-84
2023/05/29 13:37:32;;;;;;;;;;;19.00;53.60;;;;;;5068176;28;20377;-84
2023/05/29 13:39:58;;;;;;;;;;;19.00;54.00;;;;;;5060340;28;19917;-85
2023/05/29 13:42:23;;;;;;;;;;;18.90;55.60;;;;;;5064879;28;20597;-84
2023/05/29 13:44:49;;;;;;;;;;;19.00;53.50;;;;;;5062725;28;19973;-85
2023/05/29 13:47:14;;;;;;;;;;;19.00;54.70;;;;;;5073937;28;19912;-84
2023/05/29 13:49:40;;;;;;;;;;;19.20;53.90;;;;;;5062547;28;19921;-85
2023/05/29 13:52:06;;;;;;;;;;;19.30;55.80;;;;;;5064821;28;19921;-85
2023/05/29 13:54:35;;;;;;;;;;;19.20;54.00;;;;;;5070672;28;19998;-85
2023/05/29 13:57:04;;;;;;;;;;;19.20;54.50;;;;;;5088429;28;19912;-84
2023/05/29 13:59:34;;;;;;;;;;;19.30;53.70;;;;;;5071737;28;21580;-85
2023/05/29 14:02:00;;;;;;;;;;;19.10;54.00;;;;;;5060934;28;20121;-85
2023/05/29 14:04:26;;;;;;;;;;;19.10;52.00;;;;;;5052885;28;19909;-85
2023/05/29 14:06:52;;;;;;;;;;;19.20;52.70;;;;;;5058828;28;19995;-85
2023/05/29 14:09:22;;;;;;;;;;;19.50;51.50;;;;;;5063948;28;19916;-85
2023/05/29 14:11:47;;;;;;;;;;;19.50;51.90;;;;;;5071113;28;19913;-85
2023/05/29 14:14:13;;;;;;;;;;;19.40;54.40;;;;;;5070068;28;19970;-84